Sitka, AK (99835)

2:07 AM AKDT on October 02, 2014 (GMT -0800)
Sitka Rocky Gutierrez | Change Station
CLOSE
Current Station
Airport
Location: Sitka,
Elevation: 20 ft
Nearby Weather Stations

Elev 20 ft 57.05 °N, 135.36 °W | Updated 14 minutes ago

Partly Cloudy
Partly Cloudy
42 °F
Feels Like 42 °F
N
0
Wind Variable Wind from North

Today
High -- | Low -- °F
--% Chance of Precip.
Yesterday
High -- | Low -- °F
Precip. -- in
7:07 AM 6:32 PM
First Quarter, 57% visible
Pressure 30.21 in
Visibility 10.0 miles
Clouds Few 15000 ft
Dew Point 32 °F
Humidity 67%
Rainfall 0.00 in
Snow Depth Not available.
UV 0 out of 12
Pollen Not available.
Air Quality Not available.
Flu Activity Not available.
METAR PASI 020953Z 00000KT 10SM FEW150 06/00 A3021 RMK AO2 SLP230 T00560000

More Conditions Fewer Conditions

Pressure 30.21 in
Visibility 10.0 miles
Clouds Few 15000 ft
Dew Point 32 °F
Humidity 67%
Rainfall 0.00 in
Snow Depth Not available.
UV 0 out of 12
Pollen Not available.
Air Quality Not available.
Flu Activity Not available.
METAR PASI 020953Z 00000KT 10SM FEW150 06/00 A3021 RMK AO2 SLP230 T00560000

More Conditions Fewer Conditions

10-Day Weather Forecast

Almanac

Astronomy

Oct. 02, 2014 Rise Set
Actual Time 7:07 AM AKDT 6:32 PM AKDT
Civil Twilight 6:29 AM AKDT 7:10 PM AKDT
Nautical Twilight 5:44 AM AKDT 7:55 PM AKDT
Astronomical Twilight 4:58 AM AKDT 8:41 PM AKDT
Moon 3:45 PM AKDT No Moon Set
Length of Visible Light 12h 41m
Length of Day
11h 25m
Tomorrow will be 4m 48s shorter.
First Quarter, 57% of the Moon is Illuminated
Today
First Quarter
Oct 8
Full
Oct 15
Last Quarter
Oct 23
New
Oct 30
First Quarter

Today's Extremes

State Highs State Lows

Community

WunderPhotos

Upload Photos

1,758,209 photos uploaded!

WunderBlogs® & News

Nearby

Snow Depth

Station Depth Elevation
Atigun Pass 102 in 4800 ft
Indian Pass 2 in 2300 ft
Eagle Summit 77 in 3650 ft
Little Chena Ridge 2 in 2000 ft
Granite Creek 0 in 1240 ft

Earthquake Activity

City Distance Mag. Time & Date
No recent earthquake activity has been reported nearby.
Minimum magnitude displayed is 2.5.

Coastal Water Temperatures

Place Temperature
No Stations Reporting

Nearby Weather Stations